sensor_id;sensor_type;location;lat;lon;timestamp;temperature;humidity
30304;DHT22;17112;48.636;10.152;2023-08-06T00:00:05;18.00;71.90
30304;DHT22;17112;48.636;10.152;2023-08-06T00:02:31;18.00;71.70
30304;DHT22;17112;48.636;10.152;2023-08-06T00:04:57;18.00;71.50
30304;DHT22;17112;48.636;10.152;2023-08-06T00:07:22;18.00;71.50
30304;DHT22;17112;48.636;10.152;2023-08-06T00:09:48;18.00;71.70
30304;DHT22;17112;48.636;10.152;2023-08-06T00:12:14;18.00;71.90
30304;DHT22;17112;48.636;10.152;2023-08-06T00:14:39;17.90;71.80
30304;DHT22;17112;48.636;10.152;2023-08-06T00:17:06;17.90;71.90
30304;DHT22;17112;48.636;10.152;2023-08-06T00:19:32;17.90;72.10
30304;DHT22;17112;48.636;10.152;2023-08-06T00:21:58;17.90;72.20
30304;DHT22;17112;48.636;10.152;2023-08-06T00:24:23;17.90;72.50
30304;DHT22;17112;48.636;10.152;2023-08-06T00:26:49;17.90;72.50
30304;DHT22;17112;48.636;10.152;2023-08-06T00:29:15;17.90;72.60
30304;DHT22;17112;48.636;10.152;2023-08-06T00:31:41;17.90;72.60
30304;DHT22;17112;48.636;10.152;2023-08-06T00:34:06;17.90;72.70
30304;DHT22;17112;48.636;10.152;2023-08-06T00:36:32;18.00;72.80
30304;DHT22;17112;48.636;10.152;2023-08-06T00:38:57;17.90;72.80
30304;DHT22;17112;48.636;10.152;2023-08-06T00:41:23;17.90;72.80
30304;DHT22;17112;48.636;10.152;2023-08-06T00:43:49;17.90;72.80
30304;DHT22;17112;48.636;10.152;2023-08-06T00:46:15;18.00;72.90
30304;DHT22;17112;48.636;10.152;2023-08-06T00:48:41;18.00;73.00
30304;DHT22;17112;48.636;10.152;2023-08-06T00:51:09;17.90;73.10
30304;DHT22;17112;48.636;10.152;2023-08-06T00:53:36;18.00;73.20
30304;DHT22;17112;48.636;10.152;2023-08-06T00:56:02;18.00;73.00
30304;DHT22;17112;48.636;10.152;2023-08-06T00:58:29;18.00;73.10
30304;DHT22;17112;48.636;10.152;2023-08-06T01:00:54;17.90;73.00
30304;DHT22;17112;48.636;10.152;2023-08-06T01:03:20;18.00;73.20
30304;DHT22;17112;48.636;10.152;2023-08-06T01:05:46;18.00;73.00
30304;DHT22;17112;48.636;10.152;2023-08-06T01:13:58;18.00;73.00
30304;DHT22;17112;48.636;10.152;2023-08-06T01:16:25;18.00;73.10
30304;DHT22;17112;48.636;10.152;2023-08-06T01:18:51;18.00;72.90
30304;DHT22;17112;48.636;10.152;2023-08-06T01:21:17;18.00;72.90
30304;DHT22;17112;48.636;10.152;2023-08-06T01:23:43;18.00;72.90
30304;DHT22;17112;48.636;10.152;2023-08-06T01:26:19;18.00;72.80
30304;DHT22;17112;48.636;10.152;2023-08-06T01:31:18;18.00;72.80
30304;DHT22;17112;48.636;10.152;2023-08-06T01:33:45;17.90;72.60
30304;DHT22;17112;48.636;10.152;2023-08-06T01:36:15;17.90;72.80
30304;DHT22;17112;48.636;10.152;2023-08-06T01:38:41;17.90;73.00
30304;DHT22;17112;48.636;10.152;2023-08-06T01:41:07;17.90;73.00
30304;DHT22;17112;48.636;10.152;2023-08-06T01:43:33;17.90;72.90
30304;DHT22;17112;48.636;10.152;2023-08-06T01:45:58;17.90;72.90
30304;DHT22;17112;48.636;10.152;2023-08-06T01:48:24;17.90;73.10
30304;DHT22;17112;48.636;10.152;2023-08-06T01:50:49;17.90;73.10
30304;DHT22;17112;48.636;10.152;2023-08-06T01:53:15;17.90;73.10
30304;DHT22;17112;48.636;10.152;2023-08-06T01:55:41;17.80;73.00
30304;DHT22;17112;48.636;10.152;2023-08-06T01:58:06;17.90;73.10
30304;DHT22;17112;48.636;10.152;2023-08-06T02:00:32;17.90;73.20
30304;DHT22;17112;48.636;10.152;2023-08-06T02:02:58;17.80;73.10
30304;DHT22;17112;48.636;10.152;2023-08-06T02:05:23;17.80;73.30
30304;DHT22;17112;48.636;10.152;2023-08-06T02:07:49;17.80;73.50
30304;DHT22;17112;48.636;10.152;2023-08-06T02:10:15;17.80;73.50
30304;DHT22;17112;48.636;10.152;2023-08-06T02:12:40;17.80;73.50
30304;DHT22;17112;48.636;10.152;2023-08-06T02:15:06;17.80;73.40
30304;DHT22;17112;48.636;10.152;2023-08-06T02:17:32;17.80;73.30
30304;DHT22;17112;48.636;10.152;2023-08-06T02:19:57;17.80;73.30
30304;DHT22;17112;48.636;10.152;2023-08-06T02:22:23;17.80;73.30
30304;DHT22;17112;48.636;10.152;2023-08-06T02:24:49;17.80;73.20
30304;DHT22;17112;48.636;10.152;2023-08-06T02:27:15;17.80;73.10
30304;DHT22;17112;48.636;10.152;2023-08-06T02:29:40;17.80;73.10
30304;DHT22;17112;48.636;10.152;2023-08-06T02:32:07;17.80;73.10
30304;DHT22;17112;48.636;10.152;2023-08-06T02:34:33;17.80;73.10
30304;DHT22;17112;48.636;10.152;2023-08-06T02:36:58;17.80;73.20
30304;DHT22;17112;48.636;10.152;2023-08-06T02:39:24;17.80;73.20
30304;DHT22;17112;48.636;10.152;2023-08-06T02:41:50;17.80;73.10
30304;DHT22;17112;48.636;10.152;2023-08-06T02:44:16;17.80;73.10
30304;DHT22;17112;48.636;10.152;2023-08-06T02:46:43;17.80;73.00
30304;DHT22;17112;48.636;10.152;2023-08-06T02:49:09;17.80;72.90
30304;DHT22;17112;48.636;10.152;2023-08-06T02:51:35;17.70;72.80
30304;DHT22;17112;48.636;10.152;2023-08-06T02:54:00;17.70;72.80
30304;DHT22;17112;48.636;10.152;2023-08-06T02:56:26;17.70;72.80
30304;DHT22;17112;48.636;10.152;2023-08-06T02:58:52;17.70;72.90
30304;DHT22;17112;48.636;10.152;2023-08-06T03:01:17;17.70;72.80
30304;DHT22;17112;48.636;10.152;2023-08-06T03:03:43;17.70;72.80
30304;DHT22;17112;48.636;10.152;2023-08-06T03:06:08;17.60;72.70
30304;DHT22;17112;48.636;10.152;2023-08-06T03:08:34;17.60;72.70
30304;DHT22;17112;48.636;10.152;2023-08-06T03:11:00;17.50;72.60
30304;DHT22;17112;48.636;10.152;2023-08-06T03:13:26;17.50;72.80
30304;DHT22;17112;48.636;10.152;2023-08-06T03:15:56;17.50;73.00
30304;DHT22;17112;48.636;10.152;2023-08-06T03:18:22;17.50;73.30
30304;DHT22;17112;48.636;10.152;2023-08-06T03:20:48;17.50;72.90
30304;DHT22;17112;48.636;10.152;2023-08-06T03:23:14;17.50;73.10
30304;DHT22;17112;48.636;10.152;2023-08-06T03:25:40;17.40;73.00
30304;DHT22;17112;48.636;10.152;2023-08-06T03:28:05;17.40;72.90
30304;DHT22;17112;48.636;10.152;2023-08-06T03:30:31;17.40;73.00
30304;DHT22;17112;48.636;10.152;2023-08-06T03:32:56;17.30;72.90
30304;DHT22;17112;48.636;10.152;2023-08-06T03:35:22;17.30;72.80
30304;DHT22;17112;48.636;10.152;2023-08-06T03:37:48;17.40;72.80
30304;DHT22;17112;48.636;10.152;2023-08-06T03:40:15;17.30;72.70
30304;DHT22;17112;48.636;10.152;2023-08-06T03:42:41;17.30;72.80
30304;DHT22;17112;48.636;10.152;2023-08-06T03:45:07;17.30;72.90
30304;DHT22;17112;48.636;10.152;2023-08-06T03:47:33;17.20;73.00
30304;DHT22;17112;48.636;10.152;2023-08-06T03:49:59;17.20;72.90
30304;DHT22;17112;48.636;10.152;2023-08-06T03:52:24;17.20;72.80
30304;DHT22;17112;48.636;10.152;2023-08-06T03:54:50;17.20;72.90
30304;DHT22;17112;48.636;10.152;2023-08-06T03:57:15;17.10;73.00
30304;DHT22;17112;48.636;10.152;2023-08-06T03:59:41;17.10;72.90
30304;DHT22;17112;48.636;10.152;2023-08-06T04:02:07;17.10;72.80
30304;DHT22;17112;48.636;10.152;2023-08-06T04:04:32;17.10;73.00
30304;DHT22;17112;48.636;10.152;2023-08-06T04:06:58;17.10;73.10
30304;DHT22;17112;48.636;10.152;2023-08-06T04:09:24;17.00;73.10
30304;DHT22;17112;48.636;10.152;2023-08-06T04:11:49;17.00;73.20
30304;DHT22;17112;48.636;10.152;2023-08-06T04:14:15;17.00;73.30
30304;DHT22;17112;48.636;10.152;2023-08-06T04:16:41;17.00;73.50
30304;DHT22;17112;48.636;10.152;2023-08-06T04:19:06;17.00;73.50
30304;DHT22;17112;48.636;10.152;2023-08-06T04:21:32;17.00;73.40
30304;DHT22;17112;48.636;10.152;2023-08-06T04:23:59;17.00;73.40
30304;DHT22;17112;48.636;10.152;2023-08-06T04:26:25;17.00;73.50
30304;DHT22;17112;48.636;10.152;2023-08-06T04:28:51;17.00;73.50
30304;DHT22;17112;48.636;10.152;2023-08-06T04:31:16;17.00;73.60
30304;DHT22;17112;48.636;10.152;2023-08-06T04:33:42;17.00;73.60
30304;DHT22;17112;48.636;10.152;2023-08-06T04:36:08;17.00;73.60
30304;DHT22;17112;48.636;10.152;2023-08-06T04:38:34;17.00;73.60
30304;DHT22;17112;48.636;10.152;2023-08-06T04:41:02;17.10;73.80
30304;DHT22;17112;48.636;10.152;2023-08-06T04:43:28;17.00;73.90
30304;DHT22;17112;48.636;10.152;2023-08-06T04:45:54;17.10;74.10
30304;DHT22;17112;48.636;10.152;2023-08-06T04:48:20;17.10;74.20
30304;DHT22;17112;48.636;10.152;2023-08-06T04:50:48;17.10;74.20
30304;DHT22;17112;48.636;10.152;2023-08-06T04:53:14;17.10;74.10
30304;DHT22;17112;48.636;10.152;2023-08-06T04:55:40;17.20;73.90
30304;DHT22;17112;48.636;10.152;2023-08-06T04:58:05;17.20;73.70
30304;DHT22;17112;48.636;10.152;2023-08-06T05:00:31;17.20;73.80
30304;DHT22;17112;48.636;10.152;2023-08-06T05:02:59;17.20;73.70
30304;DHT22;17112;48.636;10.152;2023-08-06T05:05:25;17.20;73.80
30304;DHT22;17112;48.636;10.152;2023-08-06T05:07:50;17.20;73.70
30304;DHT22;17112;48.636;10.152;2023-08-06T05:10:16;17.20;73.60
30304;DHT22;17112;48.636;10.152;2023-08-06T05:12:42;17.20;73.50
30304;DHT22;17112;48.636;10.152;2023-08-06T05:15:08;17.20;73.50
30304;DHT22;17112;48.636;10.152;2023-08-06T05:17:34;17.20;73.50
30304;DHT22;17112;48.636;10.152;2023-08-06T05:20:00;17.20;73.60
30304;DHT22;17112;48.636;10.152;2023-08-06T05:22:26;17.20;73.70
30304;DHT22;17112;48.636;10.152;2023-08-06T05:24:52;17.20;73.90
30304;DHT22;17112;48.636;10.152;2023-08-06T05:27:17;17.20;73.90
30304;DHT22;17112;48.636;10.152;2023-08-06T05:29:45;17.20;73.90
30304;DHT22;17112;48.636;10.152;2023-08-06T05:32:10;17.20;73.70
30304;DHT22;17112;48.636;10.152;2023-08-06T05:34:36;17.20;73.80
30304;DHT22;17112;48.636;10.152;2023-08-06T05:37:03;17.20;73.80
30304;DHT22;17112;48.636;10.152;2023-08-06T05:39:29;17.20;74.00
30304;DHT22;17112;48.636;10.152;2023-08-06T05:41:54;17.20;74.10
30304;DHT22;17112;48.636;10.152;2023-08-06T05:44:21;17.30;74.10
30304;DHT22;17112;48.636;10.152;2023-08-06T05:46:49;17.30;74.00
30304;DHT22;17112;48.636;10.152;2023-08-06T05:49:15;17.30;74.70
30304;DHT22;17112;48.636;10.152;2023-08-06T05:51:41;17.30;73.80
30304;DHT22;17112;48.636;10.152;2023-08-06T05:54:07;17.30;73.80
30304;DHT22;17112;48.636;10.152;2023-08-06T05:56:32;17.40;73.70
30304;DHT22;17112;48.636;10.152;2023-08-06T05:58:58;17.40;73.60
30304;DHT22;17112;48.636;10.152;2023-08-06T06:01:24;17.40;73.40
30304;DHT22;17112;48.636;10.152;2023-08-06T06:03:49;17.40;73.30
30304;DHT22;17112;48.636;10.152;2023-08-06T06:06:15;17.40;73.40
30304;DHT22;17112;48.636;10.152;2023-08-06T06:08:42;17.50;73.60
30304;DHT22;17112;48.636;10.152;2023-08-06T06:11:07;17.50;73.00
30304;DHT22;17112;48.636;10.152;2023-08-06T06:13:33;17.50;73.30
30304;DHT22;17112;48.636;10.152;2023-08-06T06:15:58;17.50;73.70
30304;DHT22;17112;48.636;10.152;2023-08-06T06:18:24;17.60;73.60
30304;DHT22;17112;48.636;10.152;2023-08-06T06:20:50;17.60;73.00
30304;DHT22;17112;48.636;10.152;2023-08-06T06:23:15;17.70;72.90
30304;DHT22;17112;48.636;10.152;2023-08-06T06:25:47;17.70;73.00
30304;DHT22;17112;48.636;10.152;2023-08-06T06:28:13;17.70;73.40
30304;DHT22;17112;48.636;10.152;2023-08-06T06:30:41;17.80;72.90
30304;DHT22;17112;48.636;10.152;2023-08-06T06:33:07;17.80;72.90
30304;DHT22;17112;48.636;10.152;2023-08-06T06:35:33;17.80;72.60
30304;DHT22;17112;48.636;10.152;2023-08-06T06:37:59;17.90;72.70
30304;DHT22;17112;48.636;10.152;2023-08-06T06:40:25;17.90;72.60
30304;DHT22;17112;48.636;10.152;2023-08-06T06:42:51;17.90;72.40
30304;DHT22;17112;48.636;10.152;2023-08-06T06:45:17;17.90;72.20
30304;DHT22;17112;48.636;10.152;2023-08-06T06:47:43;18.00;72.40
30304;DHT22;17112;48.636;10.152;2023-08-06T06:50:09;18.10;72.40
30304;DHT22;17112;48.636;10.152;2023-08-06T06:52:35;18.10;72.00
30304;DHT22;17112;48.636;10.152;2023-08-06T06:55:00;18.20;71.90
30304;DHT22;17112;48.636;10.152;2023-08-06T06:57:26;18.20;71.90
30304;DHT22;17112;48.636;10.152;2023-08-06T06:59:52;18.20;71.00
30304;DHT22;17112;48.636;10.152;2023-08-06T07:02:18;18.30;71.20
30304;DHT22;17112;48.636;10.152;2023-08-06T07:04:43;18.30;71.10
30304;DHT22;17112;48.636;10.152;2023-08-06T07:07:09;18.40;70.90
30304;DHT22;17112;48.636;10.152;2023-08-06T07:09:35;18.50;71.00
30304;DHT22;17112;48.636;10.152;2023-08-06T07:12:01;18.50;70.60
30304;DHT22;17112;48.636;10.152;2023-08-06T07:14:28;18.50;70.20
30304;DHT22;17112;48.636;10.152;2023-08-06T07:16:53;18.50;70.10
30304;DHT22;17112;48.636;10.152;2023-08-06T07:19:19;18.60;69.80
30304;DHT22;17112;48.636;10.152;2023-08-06T07:21:45;18.50;69.50
30304;DHT22;17112;48.636;10.152;2023-08-06T07:24:11;18.50;69.20
30304;DHT22;17112;48.636;10.152;2023-08-06T07:26:37;18.50;69.40
30304;DHT22;17112;48.636;10.152;2023-08-06T07:29:03;18.50;69.30
30304;DHT22;17112;48.636;10.152;2023-08-06T07:31:29;18.50;69.10
30304;DHT22;17112;48.636;10.152;2023-08-06T07:33:54;18.50;68.30
30304;DHT22;17112;48.636;10.152;2023-08-06T07:36:20;18.40;67.80
30304;DHT22;17112;48.636;10.152;2023-08-06T07:38:46;18.40;67.80
30304;DHT22;17112;48.636;10.152;2023-08-06T07:41:12;18.30;67.60
30304;DHT22;17112;48.636;10.152;2023-08-06T07:43:38;18.30;67.80
30304;DHT22;17112;48.636;10.152;2023-08-06T07:46:04;18.20;68.10
30304;DHT22;17112;48.636;10.152;2023-08-06T07:48:30;18.20;68.40
30304;DHT22;17112;48.636;10.152;2023-08-06T07:50:56;18.20;68.20
30304;DHT22;17112;48.636;10.152;2023-08-06T07:53:23;18.20;68.50
30304;DHT22;17112;48.636;10.152;2023-08-06T07:55:53;18.30;69.00
30304;DHT22;17112;48.636;10.152;2023-08-06T07:58:19;18.30;68.50
30304;DHT22;17112;48.636;10.152;2023-08-06T08:00:46;18.30;68.30
30304;DHT22;17112;48.636;10.152;2023-08-06T08:03:13;18.20;68.10
30304;DHT22;17112;48.636;10.152;2023-08-06T08:05:40;18.20;68.60
30304;DHT22;17112;48.636;10.152;2023-08-06T08:08:06;18.30;69.00
30304;DHT22;17112;48.636;10.152;2023-08-06T08:10:32;18.30;69.40
30304;DHT22;17112;48.636;10.152;2023-08-06T08:12:58;18.50;69.00
30304;DHT22;17112;48.636;10.152;2023-08-06T08:15:25;18.50;68.60
30304;DHT22;17112;48.636;10.152;2023-08-06T08:17:53;18.60;68.40
30304;DHT22;17112;48.636;10.152;2023-08-06T08:20:21;18.70;68.50
30304;DHT22;17112;48.636;10.152;2023-08-06T08:22:46;18.70;67.70
30304;DHT22;17112;48.636;10.152;2023-08-06T08:25:12;18.70;68.10
30304;DHT22;17112;48.636;10.152;2023-08-06T08:27:38;18.70;67.40
30304;DHT22;17112;48.636;10.152;2023-08-06T08:30:04;18.60;68.20
30304;DHT22;17112;48.636;10.152;2023-08-06T08:32:30;18.60;68.60
30304;DHT22;17112;48.636;10.152;2023-08-06T08:34:56;18.60;68.00
30304;DHT22;17112;48.636;10.152;2023-08-06T08:37:23;18.50;67.80
30304;DHT22;17112;48.636;10.152;2023-08-06T08:39:49;18.50;67.80
30304;DHT22;17112;48.636;10.152;2023-08-06T08:42:16;18.50;67.70
30304;DHT22;17112;48.636;10.152;2023-08-06T08:44:44;18.50;67.70
30304;DHT22;17112;48.636;10.152;2023-08-06T08:47:11;18.50;67.40
30304;DHT22;17112;48.636;10.152;2023-08-06T08:49:37;18.40;67.40
30304;DHT22;17112;48.636;10.152;2023-08-06T08:52:04;18.40;67.20
30304;DHT22;17112;48.636;10.152;2023-08-06T08:54:38;18.30;67.70
30304;DHT22;17112;48.636;10.152;2023-08-06T08:57:04;18.30;67.90
30304;DHT22;17112;48.636;10.152;2023-08-06T08:59:33;18.30;67.50
30304;DHT22;17112;48.636;10.152;2023-08-06T09:02:00;18.20;67.60
30304;DHT22;17112;48.636;10.152;2023-08-06T09:04:28;18.20;68.20
30304;DHT22;17112;48.636;10.152;2023-08-06T09:06:57;18.10;68.40
30304;DHT22;17112;48.636;10.152;2023-08-06T09:09:30;18.10;68.30
30304;DHT22;17112;48.636;10.152;2023-08-06T09:12:01;18.10;68.60
30304;DHT22;17112;48.636;10.152;2023-08-06T09:14:28;18.20;68.80
30304;DHT22;17112;48.636;10.152;2023-08-06T09:16:54;18.20;69.00
30304;DHT22;17112;48.636;10.152;2023-08-06T09:19:20;18.30;69.30
30304;DHT22;17112;48.636;10.152;2023-08-06T09:21:46;18.30;69.10
30304;DHT22;17112;48.636;10.152;2023-08-06T09:24:15;18.40;68.40
30304;DHT22;17112;48.636;10.152;2023-08-06T09:26:42;18.50;68.50
30304;DHT22;17112;48.636;10.152;2023-08-06T09:29:09;18.60;68.70
30304;DHT22;17112;48.636;10.152;2023-08-06T09:31:44;18.70;68.40
30304;DHT22;17112;48.636;10.152;2023-08-06T09:34:20;18.70;67.40
30304;DHT22;17112;48.636;10.152;2023-08-06T09:36:54;18.80;67.20
30304;DHT22;17112;48.636;10.152;2023-08-06T09:39:27;18.80;67.10
30304;DHT22;17112;48.636;10.152;2023-08-06T09:41:59;18.80;67.00
30304;DHT22;17112;48.636;10.152;2023-08-06T09:44:27;18.80;67.10
30304;DHT22;17112;48.636;10.152;2023-08-06T09:46:55;18.70;67.10
30304;DHT22;17112;48.636;10.152;2023-08-06T09:49:40;18.70;67.10
30304;DHT22;17112;48.636;10.152;2023-08-06T09:52:11;18.70;67.50
30304;DHT22;17112;48.636;10.152;2023-08-06T09:54:38;18.70;67.30
30304;DHT22;17112;48.636;10.152;2023-08-06T09:57:04;18.60;66.60
30304;DHT22;17112;48.636;10.152;2023-08-06T09:59:30;18.60;67.00
30304;DHT22;17112;48.636;10.152;2023-08-06T10:01:58;18.50;67.10
30304;DHT22;17112;48.636;10.152;2023-08-06T10:04:24;18.50;67.30
30304;DHT22;17112;48.636;10.152;2023-08-06T10:06:50;18.50;67.50
30304;DHT22;17112;48.636;10.152;2023-08-06T10:09:16;18.50;67.60
30304;DHT22;17112;48.636;10.152;2023-08-06T10:11:49;18.50;68.10
30304;DHT22;17112;48.636;10.152;2023-08-06T10:14:26;18.50;68.50
30304;DHT22;17112;48.636;10.152;2023-08-06T10:16:54;18.50;69.10
30304;DHT22;17112;48.636;10.152;2023-08-06T10:19:23;18.60;68.60
30304;DHT22;17112;48.636;10.152;2023-08-06T10:22:09;18.70;68.70
30304;DHT22;17112;48.636;10.152;2023-08-06T10:24:58;18.70;68.50
30304;DHT22;17112;48.636;10.152;2023-08-06T10:27:40;18.80;68.30
30304;DHT22;17112;48.636;10.152;2023-08-06T10:30:30;18.80;67.80
30304;DHT22;17112;48.636;10.152;2023-08-06T10:33:01;18.80;67.80
30304;DHT22;17112;48.636;10.152;2023-08-06T10:35:31;18.80;67.60
30304;DHT22;17112;48.636;10.152;2023-08-06T10:38:10;18.80;67.30
30304;DHT22;17112;48.636;10.152;2023-08-06T10:40:39;18.80;67.60
30304;DHT22;17112;48.636;10.152;2023-08-06T10:43:05;18.80;67.60
30304;DHT22;17112;48.636;10.152;2023-08-06T10:45:36;18.90;68.20
30304;DHT22;17112;48.636;10.152;2023-08-06T10:48:03;19.00;68.50
30304;DHT22;17112;48.636;10.152;2023-08-06T10:50:29;19.10;68.50
30304;DHT22;17112;48.636;10.152;2023-08-06T10:52:55;19.30;67.30
30304;DHT22;17112;48.636;10.152;2023-08-06T10:55:27;19.40;66.30
30304;DHT22;17112;48.636;10.152;2023-08-06T10:57:53;19.50;65.60
30304;DHT22;17112;48.636;10.152;2023-08-06T11:00:21;19.70;65.90
30304;DHT22;17112;48.636;10.152;2023-08-06T11:02:48;19.80;65.20
30304;DHT22;17112;48.636;10.152;2023-08-06T11:05:15;19.90;64.80
30304;DHT22;17112;48.636;10.152;2023-08-06T11:07:40;20.00;64.60
30304;DHT22;17112;48.636;10.152;2023-08-06T11:10:09;20.00;64.50
30304;DHT22;17112;48.636;10.152;2023-08-06T11:12:35;20.10;63.80
30304;DHT22;17112;48.636;10.152;2023-08-06T11:15:04;20.10;63.60
30304;DHT22;17112;48.636;10.152;2023-08-06T11:17:32;20.20;63.90
30304;DHT22;17112;48.636;10.152;2023-08-06T11:20:05;20.20;63.70
30304;DHT22;17112;48.636;10.152;2023-08-06T11:22:31;20.30;62.80
30304;DHT22;17112;48.636;10.152;2023-08-06T11:24:57;20.30;62.60
30304;DHT22;17112;48.636;10.152;2023-08-06T11:27:25;20.20;61.60
30304;DHT22;17112;48.636;10.152;2023-08-06T11:29:51;20.10;62.00
30304;DHT22;17112;48.636;10.152;2023-08-06T11:32:17;19.90;62.40
30304;DHT22;17112;48.636;10.152;2023-08-06T11:34:43;19.80;63.10
30304;DHT22;17112;48.636;10.152;2023-08-06T11:37:09;19.70;63.80
30304;DHT22;17112;48.636;10.152;2023-08-06T11:39:37;19.60;64.00
30304;DHT22;17112;48.636;10.152;2023-08-06T11:42:04;19.50;64.50
30304;DHT22;17112;48.636;10.152;2023-08-06T11:44:35;19.50;65.00
30304;DHT22;17112;48.636;10.152;2023-08-06T11:47:03;19.60;64.70
30304;DHT22;17112;48.636;10.152;2023-08-06T11:49:43;19.70;65.40
30304;DHT22;17112;48.636;10.152;2023-08-06T11:52:23;19.80;64.50
30304;DHT22;17112;48.636;10.152;2023-08-06T11:55:06;19.90;64.70
30304;DHT22;17112;48.636;10.152;2023-08-06T11:57:34;20.00;64.10
30304;DHT22;17112;48.636;10.152;2023-08-06T12:00:08;20.20;63.10
30304;DHT22;17112;48.636;10.152;2023-08-06T12:02:34;20.20;62.20
30304;DHT22;17112;48.636;10.152;2023-08-06T12:07:32;20.20;61.90
30304;DHT22;17112;48.636;10.152;2023-08-06T12:09:59;20.20;61.30
30304;DHT22;17112;48.636;10.152;2023-08-06T12:12:25;20.30;60.70
30304;DHT22;17112;48.636;10.152;2023-08-06T12:14:50;20.20;60.70
30304;DHT22;17112;48.636;10.152;2023-08-06T12:17:16;20.20;59.90
30304;DHT22;17112;48.636;10.152;2023-08-06T12:19:43;20.20;60.00
30304;DHT22;17112;48.636;10.152;2023-08-06T12:22:09;20.10;59.60
30304;DHT22;17112;48.636;10.152;2023-08-06T12:24:35;20.00;60.50
30304;DHT22;17112;48.636;10.152;2023-08-06T12:27:00;19.90;60.90
30304;DHT22;17112;48.636;10.152;2023-08-06T12:29:27;19.80;61.50
30304;DHT22;17112;48.636;10.152;2023-08-06T12:31:53;19.60;61.70
30304;DHT22;17112;48.636;10.152;2023-08-06T12:34:19;19.50;61.60
30304;DHT22;17112;48.636;10.152;2023-08-06T12:36:45;19.30;62.00
30304;DHT22;17112;48.636;10.152;2023-08-06T12:39:10;19.10;62.30
30304;DHT22;17112;48.636;10.152;2023-08-06T12:41:36;19.00;62.80
30304;DHT22;17112;48.636;10.152;2023-08-06T12:44:02;18.80;63.00
30304;DHT22;17112;48.636;10.152;2023-08-06T12:46:27;18.70;63.40
30304;DHT22;17112;48.636;10.152;2023-08-06T12:48:53;18.50;63.90
30304;DHT22;17112;48.636;10.152;2023-08-06T12:51:19;18.50;64.40
30304;DHT22;17112;48.636;10.152;2023-08-06T12:53:44;18.40;65.40
30304;DHT22;17112;48.636;10.152;2023-08-06T12:56:10;18.40;65.70
30304;DHT22;17112;48.636;10.152;2023-08-06T12:58:36;18.40;65.50
30304;DHT22;17112;48.636;10.152;2023-08-06T13:01:05;18.40;65.20
30304;DHT22;17112;48.636;10.152;2023-08-06T13:03:31;18.40;66.10
30304;DHT22;17112;48.636;10.152;2023-08-06T13:05:56;18.30;65.70
30304;DHT22;17112;48.636;10.152;2023-08-06T13:08:23;18.30;65.50
30304;DHT22;17112;48.636;10.152;2023-08-06T13:10:48;18.30;65.60
30304;DHT22;17112;48.636;10.152;2023-08-06T13:13:14;18.30;66.40
30304;DHT22;17112;48.636;10.152;2023-08-06T13:15:40;18.30;66.90
30304;DHT22;17112;48.636;10.152;2023-08-06T13:18:06;18.30;66.40
30304;DHT22;17112;48.636;10.152;2023-08-06T13:20:31;18.20;66.10
30304;DHT22;17112;48.636;10.152;2023-08-06T13:22:58;18.10;65.70
30304;DHT22;17112;48.636;10.152;2023-08-06T13:25:26;18.10;65.70
30304;DHT22;17112;48.636;10.152;2023-08-06T13:27:53;18.00;65.80
30304;DHT22;17112;48.636;10.152;2023-08-06T13:30:21;17.90;66.10
30304;DHT22;17112;48.636;10.152;2023-08-06T13:32:48;17.80;66.60
30304;DHT22;17112;48.636;10.152;2023-08-06T13:35:14;17.80;67.00
30304;DHT22;17112;48.636;10.152;2023-08-06T13:37:39;17.80;67.10
30304;DHT22;17112;48.636;10.152;2023-08-06T13:40:05;17.80;67.40
30304;DHT22;17112;48.636;10.152;2023-08-06T13:42:32;17.80;67.80
30304;DHT22;17112;48.636;10.152;2023-08-06T13:44:57;17.80;68.00
30304;DHT22;17112;48.636;10.152;2023-08-06T13:47:28;17.80;68.00
30304;DHT22;17112;48.636;10.152;2023-08-06T13:49:53;17.90;67.80
30304;DHT22;17112;48.636;10.152;2023-08-06T13:52:20;17.90;67.60
30304;DHT22;17112;48.636;10.152;2023-08-06T13:54:47;17.90;67.40
30304;DHT22;17112;48.636;10.152;2023-08-06T13:57:13;17.90;67.30
30304;DHT22;17112;48.636;10.152;2023-08-06T13:59:38;17.80;67.20
30304;DHT22;17112;48.636;10.152;2023-08-06T14:02:04;17.80;66.80
30304;DHT22;17112;48.636;10.152;2023-08-06T14:04:30;17.70;66.80
30304;DHT22;17112;48.636;10.152;2023-08-06T14:06:57;17.70;67.20
30304;DHT22;17112;48.636;10.152;2023-08-06T14:09:23;17.60;67.40
30304;DHT22;17112;48.636;10.152;2023-08-06T14:11:49;17.60;67.20
30304;DHT22;17112;48.636;10.152;2023-08-06T14:14:15;17.50;67.30
30304;DHT22;17112;48.636;10.152;2023-08-06T14:16:41;17.50;67.90
30304;DHT22;17112;48.636;10.152;2023-08-06T14:19:07;17.50;67.80
30304;DHT22;17112;48.636;10.152;2023-08-06T14:21:33;17.50;67.60
30304;DHT22;17112;48.636;10.152;2023-08-06T14:23:59;17.60;67.80
30304;DHT22;17112;48.636;10.152;2023-08-06T14:26:25;17.60;67.80
30304;DHT22;17112;48.636;10.152;2023-08-06T14:28:50;17.60;67.30
30304;DHT22;17112;48.636;10.152;2023-08-06T14:31:20;17.70;67.10
30304;DHT22;17112;48.636;10.152;2023-08-06T14:33:46;17.80;67.20
30304;DHT22;17112;48.636;10.152;2023-08-06T14:36:12;17.80;67.00
30304;DHT22;17112;48.636;10.152;2023-08-06T14:38:37;17.80;66.70
30304;DHT22;17112;48.636;10.152;2023-08-06T14:41:03;17.80;66.50
30304;DHT22;17112;48.636;10.152;2023-08-06T14:43:29;17.80;66.30
30304;DHT22;17112;48.636;10.152;2023-08-06T14:45:54;17.90;66.30
30304;DHT22;17112;48.636;10.152;2023-08-06T14:48:20;17.90;66.40
30304;DHT22;17112;48.636;10.152;2023-08-06T14:50:46;17.90;65.90
30304;DHT22;17112;48.636;10.152;2023-08-06T14:53:11;17.80;65.80
30304;DHT22;17112;48.636;10.152;2023-08-06T14:55:38;17.90;65.90
30304;DHT22;17112;48.636;10.152;2023-08-06T14:58:04;17.80;66.00
30304;DHT22;17112;48.636;10.152;2023-08-06T15:00:30;17.80;66.10
30304;DHT22;17112;48.636;10.152;2023-08-06T15:02:59;17.80;66.10
30304;DHT22;17112;48.636;10.152;2023-08-06T15:05:25;17.80;66.00
30304;DHT22;17112;48.636;10.152;2023-08-06T15:07:51;17.80;65.90
30304;DHT22;17112;48.636;10.152;2023-08-06T15:10:18;17.80;66.00
30304;DHT22;17112;48.636;10.152;2023-08-06T15:12:44;17.80;66.00
30304;DHT22;17112;48.636;10.152;2023-08-06T15:15:10;17.80;66.30
30304;DHT22;17112;48.636;10.152;2023-08-06T15:17:36;17.80;66.80
30304;DHT22;17112;48.636;10.152;2023-08-06T15:20:03;17.90;66.40
30304;DHT22;17112;48.636;10.152;2023-08-06T15:22:29;17.80;66.10